Terminal Aerodrome Forecast
Issued by NWS

Home | Current Version | Previous Version | Text Only | Print | Product List | Glossary Off
Versions: 1 2 3 4 5 6 7 8 9 10 11 12

364
FTUS45 KGGW 211124
TAFSDY
TAF
KSDY 211124Z 2112/2212 VRB03KT P6SM SCT130
     FM211400 33009KT P6SM SCT130
     FM220300 VRB04KT P6SM FEW200=

USA.gov is the U.S. government's official web portal to all federal, state and local government web resources and services.